sensor_id;sensor_type;location;lat;lon;timestamp;pressure;altitude;pressure_sealevel;temperature;humidity
60715;BME280;46564;53.096;8.246;2023-02-18T00:01:11;101751.91;;;5.16;83.93
60715;BME280;46564;53.096;8.246;2023-02-18T00:06:19;101751.28;;;5.20;84.13
60715;BME280;46564;53.096;8.246;2023-02-18T00:11:21;101760.22;;;5.25;84.31
60715;BME280;46564;53.096;8.246;2023-02-18T00:16:23;101755.66;;;5.37;84.31
60715;BME280;46564;53.096;8.246;2023-02-18T00:21:26;101766.22;;;5.40;84.28
60715;BME280;46564;53.096;8.246;2023-02-18T00:26:28;101754.22;;;5.42;84.47
60715;BME280;46564;53.096;8.246;2023-02-18T00:31:32;101751.00;;;5.46;84.52
60715;BME280;46564;53.096;8.246;2023-02-18T00:36:34;101748.78;;;5.54;84.49
60715;BME280;46564;53.096;8.246;2023-02-18T00:41:38;101743.75;;;5.57;84.54
60715;BME280;46564;53.096;8.246;2023-02-18T00:46:39;101741.56;;;5.65;84.55
60715;BME280;46564;53.096;8.246;2023-02-18T00:51:42;101738.31;;;5.69;84.71
60715;BME280;46564;53.096;8.246;2023-02-18T00:56:44;101725.56;;;5.74;84.65
60715;BME280;46564;53.096;8.246;2023-02-18T01:01:46;101721.47;;;5.79;84.65
60715;BME280;46564;53.096;8.246;2023-02-18T01:06:47;101719.03;;;5.82;84.27
60715;BME280;46564;53.096;8.246;2023-02-18T01:11:49;101719.19;;;5.85;84.44
60715;BME280;46564;53.096;8.246;2023-02-18T01:16:50;101711.31;;;5.83;84.59
60715;BME280;46564;53.096;8.246;2023-02-18T01:21:52;101714.91;;;5.86;84.35
60715;BME280;46564;53.096;8.246;2023-02-18T01:26:54;101685.47;;;5.87;84.25
60715;BME280;46564;53.096;8.246;2023-02-18T01:31:55;101692.63;;;5.91;84.45
60715;BME280;46564;53.096;8.246;2023-02-18T01:36:57;101695.31;;;5.92;84.01
60715;BME280;46564;53.096;8.246;2023-02-18T01:41:58;101689.28;;;5.93;84.05
60715;BME280;46564;53.096;8.246;2023-02-18T01:47:00;101686.63;;;5.92;83.65
60715;BME280;46564;53.096;8.246;2023-02-18T01:52:08;101698.41;;;5.85;83.68
60715;BME280;46564;53.096;8.246;2023-02-18T01:57:34;101703.59;;;5.85;83.77
60715;BME280;46564;53.096;8.246;2023-02-18T02:02:39;101692.31;;;5.84;83.56
60715;BME280;46564;53.096;8.246;2023-02-18T02:07:44;101683.38;;;5.79;83.50
60715;BME280;46564;53.096;8.246;2023-02-18T02:13:06;101680.06;;;5.82;83.80
60715;BME280;46564;53.096;8.246;2023-02-18T02:50:19;101621.84;;;5.96;83.74
60715;BME280;46564;53.096;8.246;2023-02-18T02:55:24;101615.66;;;5.94;83.48
60715;BME280;46564;53.096;8.246;2023-02-18T03:11:16;101597.09;;;5.87;83.64
60715;BME280;46564;53.096;8.246;2023-02-18T03:16:34;101575.50;;;5.88;83.98
60715;BME280;46564;53.096;8.246;2023-02-18T03:21:43;101581.56;;;5.88;84.06
60715;BME280;46564;53.096;8.246;2023-02-18T03:26:50;101582.41;;;5.87;84.04
60715;BME280;46564;53.096;8.246;2023-02-18T03:31:59;101562.50;;;5.88;84.35
60715;BME280;46564;53.096;8.246;2023-02-18T03:37:04;101555.50;;;5.87;84.43
60715;BME280;46564;53.096;8.246;2023-02-18T03:42:06;101545.88;;;5.84;84.56
60715;BME280;46564;53.096;8.246;2023-02-18T03:47:08;101560.63;;;5.85;84.58
60715;BME280;46564;53.096;8.246;2023-02-18T03:52:10;101555.66;;;5.90;84.97
60715;BME280;46564;53.096;8.246;2023-02-18T03:57:11;101555.81;;;5.93;84.92
60715;BME280;46564;53.096;8.246;2023-02-18T04:02:13;101546.38;;;5.95;85.02
60715;BME280;46564;53.096;8.246;2023-02-18T04:07:14;101542.47;;;6.03;85.16
60715;BME280;46564;53.096;8.246;2023-02-18T04:12:16;101519.34;;;6.09;85.35
60715;BME280;46564;53.096;8.246;2023-02-18T04:17:18;101505.47;;;6.09;84.93
60715;BME280;46564;53.096;8.246;2023-02-18T04:22:19;101498.16;;;6.19;85.04
60715;BME280;46564;53.096;8.246;2023-02-18T04:27:21;101484.50;;;6.24;85.10
60715;BME280;46564;53.096;8.246;2023-02-18T04:32:23;101485.44;;;6.26;85.35
60715;BME280;46564;53.096;8.246;2023-02-18T04:37:24;101495.16;;;6.30;85.81
60715;BME280;46564;53.096;8.246;2023-02-18T04:42:26;101499.50;;;6.29;86.76
60715;BME280;46564;53.096;8.246;2023-02-18T04:47:27;101498.38;;;6.24;87.47
60715;BME280;46564;53.096;8.246;2023-02-18T04:52:29;101478.28;;;6.20;88.04
60715;BME280;46564;53.096;8.246;2023-02-18T04:57:30;101467.34;;;6.09;88.75
60715;BME280;46564;53.096;8.246;2023-02-18T05:02:32;101467.06;;;6.03;89.33
60715;BME280;46564;53.096;8.246;2023-02-18T05:07:34;101460.19;;;6.04;90.27
60715;BME280;46564;53.096;8.246;2023-02-18T05:12:35;101446.06;;;5.98;90.31
60715;BME280;46564;53.096;8.246;2023-02-18T05:17:37;101432.19;;;5.98;91.02
60715;BME280;46564;53.096;8.246;2023-02-18T05:22:39;101419.88;;;5.95;90.91
60715;BME280;46564;53.096;8.246;2023-02-18T05:27:41;101413.66;;;5.92;91.87
60715;BME280;46564;53.096;8.246;2023-02-18T05:32:43;101393.63;;;5.89;92.57
60715;BME280;46564;53.096;8.246;2023-02-18T05:37:45;101371.94;;;5.89;93.08
60715;BME280;46564;53.096;8.246;2023-02-18T05:42:46;101362.44;;;5.89;93.71
60715;BME280;46564;53.096;8.246;2023-02-18T05:47:48;101349.34;;;5.88;93.95
60715;BME280;46564;53.096;8.246;2023-02-18T05:52:49;101335.50;;;5.87;94.32
60715;BME280;46564;53.096;8.246;2023-02-18T05:57:51;101314.75;;;5.89;94.74
60715;BME280;46564;53.096;8.246;2023-02-18T06:02:53;101299.22;;;5.90;95.09
60715;BME280;46564;53.096;8.246;2023-02-18T06:07:54;101283.84;;;5.95;95.38
60715;BME280;46564;53.096;8.246;2023-02-18T06:12:57;101278.63;;;5.95;95.50
60715;BME280;46564;53.096;8.246;2023-02-18T06:17:58;101272.47;;;5.93;96.12
60715;BME280;46564;53.096;8.246;2023-02-18T06:23:00;101274.41;;;5.97;96.19
60715;BME280;46564;53.096;8.246;2023-02-18T06:28:01;101267.50;;;5.97;96.39
60715;BME280;46564;53.096;8.246;2023-02-18T06:33:03;101244.31;;;6.02;96.58
60715;BME280;46564;53.096;8.246;2023-02-18T06:38:05;101230.47;;;6.03;97.00
60715;BME280;46564;53.096;8.246;2023-02-18T06:43:07;101218.72;;;6.11;97.20
60715;BME280;46564;53.096;8.246;2023-02-18T06:48:09;101210.34;;;6.18;97.28
60715;BME280;46564;53.096;8.246;2023-02-18T06:53:11;101208.06;;;6.26;97.58
60715;BME280;46564;53.096;8.246;2023-02-18T06:58:13;101183.19;;;6.33;97.82
60715;BME280;46564;53.096;8.246;2023-02-18T07:03:14;101163.47;;;6.38;97.98
60715;BME280;46564;53.096;8.246;2023-02-18T07:08:16;101154.00;;;6.40;97.95
60715;BME280;46564;53.096;8.246;2023-02-18T07:13:18;101138.75;;;6.49;98.23
60715;BME280;46564;53.096;8.246;2023-02-18T07:18:19;101128.56;;;6.55;98.47
60715;BME280;46564;53.096;8.246;2023-02-18T07:23:21;101128.81;;;6.62;98.72
60715;BME280;46564;53.096;8.246;2023-02-18T07:28:23;101108.53;;;6.76;98.75
60715;BME280;46564;53.096;8.246;2023-02-18T07:33:24;101094.13;;;6.85;98.98
60715;BME280;46564;53.096;8.246;2023-02-18T07:38:27;101093.06;;;7.03;99.17
60715;BME280;46564;53.096;8.246;2023-02-18T07:43:29;101084.84;;;7.16;99.42
60715;BME280;46564;53.096;8.246;2023-02-18T07:48:30;101077.69;;;7.35;99.27
60715;BME280;46564;53.096;8.246;2023-02-18T07:53:32;101072.09;;;7.50;99.54
60715;BME280;46564;53.096;8.246;2023-02-18T07:58:35;101054.53;;;7.70;100.00
60715;BME280;46564;53.096;8.246;2023-02-18T08:03:37;101062.81;;;7.84;100.00
60715;BME280;46564;53.096;8.246;2023-02-18T08:08:39;101042.31;;;7.94;100.00
60715;BME280;46564;53.096;8.246;2023-02-18T08:13:40;101039.94;;;8.02;100.00
60715;BME280;46564;53.096;8.246;2023-02-18T08:18:42;101038.38;;;8.09;100.00
60715;BME280;46564;53.096;8.246;2023-02-18T08:23:44;101042.22;;;8.20;100.00
60715;BME280;46564;53.096;8.246;2023-02-18T08:28:47;101040.81;;;8.31;100.00
60715;BME280;46564;53.096;8.246;2023-02-18T08:33:49;101033.25;;;8.39;100.00
60715;BME280;46564;53.096;8.246;2023-02-18T08:38:51;101022.13;;;8.45;100.00
60715;BME280;46564;53.096;8.246;2023-02-18T08:43:52;101032.78;;;8.53;100.00
60715;BME280;46564;53.096;8.246;2023-02-18T08:48:54;101020.63;;;8.53;100.00
60715;BME280;46564;53.096;8.246;2023-02-18T08:53:55;101006.94;;;8.60;100.00
60715;BME280;46564;53.096;8.246;2023-02-18T08:58:57;101013.97;;;8.64;100.00
60715;BME280;46564;53.096;8.246;2023-02-18T09:03:59;101008.94;;;8.71;100.00
60715;BME280;46564;53.096;8.246;2023-02-18T09:09:01;100996.81;;;8.73;100.00
60715;BME280;46564;53.096;8.246;2023-02-18T09:14:02;101000.34;;;8.75;100.00
60715;BME280;46564;53.096;8.246;2023-02-18T09:19:04;101000.44;;;8.78;100.00
60715;BME280;46564;53.096;8.246;2023-02-18T09:24:06;100999.59;;;8.79;100.00
60715;BME280;46564;53.096;8.246;2023-02-18T09:29:08;100993.50;;;8.78;100.00
60715;BME280;46564;53.096;8.246;2023-02-18T09:34:10;100989.19;;;8.80;100.00
60715;BME280;46564;53.096;8.246;2023-02-18T09:39:11;101001.28;;;8.77;100.00
60715;BME280;46564;53.096;8.246;2023-02-18T09:44:22;100983.81;;;8.74;100.00
60715;BME280;46564;53.096;8.246;2023-02-18T09:49:28;100993.25;;;8.71;100.00
60715;BME280;46564;53.096;8.246;2023-02-18T09:54:30;100990.66;;;8.71;100.00
60715;BME280;46564;53.096;8.246;2023-02-18T09:59:32;100990.47;;;8.64;100.00
60715;BME280;46564;53.096;8.246;2023-02-18T10:04:38;100991.34;;;8.63;100.00
60715;BME280;46564;53.096;8.246;2023-02-18T10:09:41;100999.25;;;8.66;100.00
60715;BME280;46564;53.096;8.246;2023-02-18T10:14:44;100987.09;;;8.67;100.00
60715;BME280;46564;53.096;8.246;2023-02-18T10:19:48;100996.00;;;8.74;100.00
60715;BME280;46564;53.096;8.246;2023-02-18T10:24:53;100992.38;;;8.70;100.00
60715;BME280;46564;53.096;8.246;2023-02-18T10:30:09;100988.03;;;8.71;100.00
60715;BME280;46564;53.096;8.246;2023-02-18T10:35:23;100999.44;;;8.73;100.00
60715;BME280;46564;53.096;8.246;2023-02-18T10:40:41;100987.91;;;8.66;100.00
60715;BME280;46564;53.096;8.246;2023-02-18T10:51:25;100977.59;;;8.71;100.00
60715;BME280;46564;53.096;8.246;2023-02-18T10:56:31;100980.31;;;8.74;100.00
60715;BME280;46564;53.096;8.246;2023-02-18T11:01:34;100989.75;;;8.69;100.00
60715;BME280;46564;53.096;8.246;2023-02-18T11:06:45;100998.56;;;8.72;100.00
60715;BME280;46564;53.096;8.246;2023-02-18T11:11:47;100994.13;;;8.70;100.00
60715;BME280;46564;53.096;8.246;2023-02-18T11:17:34;100997.53;;;8.67;100.00
60715;BME280;46564;53.096;8.246;2023-02-18T11:22:38;101001.78;;;8.63;100.00
60715;BME280;46564;53.096;8.246;2023-02-18T11:27:48;101013.97;;;8.64;100.00
60715;BME280;46564;53.096;8.246;2023-02-18T11:32:58;101011.28;;;8.61;100.00
60715;BME280;46564;53.096;8.246;2023-02-18T11:38:02;101008.66;;;8.61;100.00
60715;BME280;46564;53.096;8.246;2023-02-18T11:43:14;101022.59;;;8.60;100.00
60715;BME280;46564;53.096;8.246;2023-02-18T11:48:22;101016.69;;;8.67;100.00
60715;BME280;46564;53.096;8.246;2023-02-18T11:58:42;101010.03;;;8.79;100.00
60715;BME280;46564;53.096;8.246;2023-02-18T12:09:26;101035.19;;;8.75;100.00
60715;BME280;46564;53.096;8.246;2023-02-18T12:14:29;101019.53;;;8.75;100.00
60715;BME280;46564;53.096;8.246;2023-02-18T12:19:54;101028.25;;;8.76;100.00
60715;BME280;46564;53.096;8.246;2023-02-18T12:25:15;101029.19;;;8.79;100.00
60715;BME280;46564;53.096;8.246;2023-02-18T12:30:48;101037.94;;;8.80;100.00
60715;BME280;46564;53.096;8.246;2023-02-18T12:58:23;101055.03;;;9.00;100.00
60715;BME280;46564;53.096;8.246;2023-02-18T13:19:24;101072.00;;;9.16;99.74
60715;BME280;46564;53.096;8.246;2023-02-18T13:24:33;101077.38;;;9.21;99.56
60715;BME280;46564;53.096;8.246;2023-02-18T13:30:12;101077.59;;;9.30;98.94
60715;BME280;46564;53.096;8.246;2023-02-18T13:35:19;101074.13;;;9.30;98.17
60715;BME280;46564;53.096;8.246;2023-02-18T13:40:24;101073.91;;;9.22;97.92
60715;BME280;46564;53.096;8.246;2023-02-18T13:45:30;101074.84;;;9.24;97.50
60715;BME280;46564;53.096;8.246;2023-02-18T13:50:39;101070.41;;;9.22;97.06
60715;BME280;46564;53.096;8.246;2023-02-18T14:00:50;101090.72;;;9.32;96.48
60715;BME280;46564;53.096;8.246;2023-02-18T14:05:55;101099.25;;;9.26;95.88
60715;BME280;46564;53.096;8.246;2023-02-18T14:16:14;101110.66;;;9.28;95.57
60715;BME280;46564;53.096;8.246;2023-02-18T14:21:19;101129.88;;;9.30;94.93
60715;BME280;46564;53.096;8.246;2023-02-18T14:26:24;101129.78;;;9.27;94.49
60715;BME280;46564;53.096;8.246;2023-02-18T14:36:52;101155.78;;;9.23;93.36
60715;BME280;46564;53.096;8.246;2023-02-18T14:42:02;101140.13;;;9.23;92.98
60715;BME280;46564;53.096;8.246;2023-02-18T14:52:43;101161.03;;;9.23;92.11
60715;BME280;46564;53.096;8.246;2023-02-18T14:57:56;101154.84;;;9.19;91.76
60715;BME280;46564;53.096;8.246;2023-02-18T15:03:01;101166.69;;;9.08;91.56
60715;BME280;46564;53.096;8.246;2023-02-18T15:08:23;101183.06;;;9.02;91.67
60715;BME280;46564;53.096;8.246;2023-02-18T15:13:33;101186.56;;;9.02;91.28
60715;BME280;46564;53.096;8.246;2023-02-18T15:18:39;101190.03;;;9.01;91.22
60715;BME280;46564;53.096;8.246;2023-02-18T15:23:41;101191.75;;;9.01;91.00
60715;BME280;46564;53.096;8.246;2023-02-18T15:28:58;101207.06;;;8.90;91.10
60715;BME280;46564;53.096;8.246;2023-02-18T15:34:00;101215.75;;;8.60;91.70
60715;BME280;46564;53.096;8.246;2023-02-18T15:39:01;101221.31;;;8.44;92.70
60715;BME280;46564;53.096;8.246;2023-02-18T15:44:05;101234.22;;;8.41;93.24
60715;BME280;46564;53.096;8.246;2023-02-18T15:49:08;101233.16;;;8.36;93.43
60715;BME280;46564;53.096;8.246;2023-02-18T15:54:19;101230.47;;;8.32;93.54
60715;BME280;46564;53.096;8.246;2023-02-18T15:59:37;101225.03;;;8.26;93.53
60715;BME280;46564;53.096;8.246;2023-02-18T16:04:49;101242.22;;;8.20;93.40
60715;BME280;46564;53.096;8.246;2023-02-18T16:15:24;101243.06;;;8.19;93.48
60715;BME280;46564;53.096;8.246;2023-02-18T16:20:30;101253.34;;;8.14;93.26
60715;BME280;46564;53.096;8.246;2023-02-18T16:30:42;101267.19;;;8.13;93.34
60715;BME280;46564;53.096;8.246;2023-02-18T16:35:46;101276.81;;;8.14;93.56
60715;BME280;46564;53.096;8.246;2023-02-18T16:40:52;101274.19;;;8.14;93.40
60715;BME280;46564;53.096;8.246;2023-02-18T16:45:56;101262.69;;;8.09;93.32
60715;BME280;46564;53.096;8.246;2023-02-18T16:51:00;101265.25;;;8.07;93.60
60715;BME280;46564;53.096;8.246;2023-02-18T16:56:14;101277.31;;;8.04;93.37
60715;BME280;46564;53.096;8.246;2023-02-18T17:01:23;101300.03;;;8.06;93.31
60715;BME280;46564;53.096;8.246;2023-02-18T17:06:28;101300.84;;;8.05;92.96
60715;BME280;46564;53.096;8.246;2023-02-18T17:11:35;101305.91;;;8.01;92.76
60715;BME280;46564;53.096;8.246;2023-02-18T17:16:53;101295.31;;;7.96;92.88
60715;BME280;46564;53.096;8.246;2023-02-18T17:22:03;101310.72;;;7.90;93.07
60715;BME280;46564;53.096;8.246;2023-02-18T17:27:17;101323.50;;;7.82;92.88
60715;BME280;46564;53.096;8.246;2023-02-18T17:32:29;101342.94;;;7.68;93.35
60715;BME280;46564;53.096;8.246;2023-02-18T17:43:04;101350.00;;;7.48;94.03
60715;BME280;46564;53.096;8.246;2023-02-18T17:48:32;101366.41;;;7.45;94.67
60715;BME280;46564;53.096;8.246;2023-02-18T17:54:22;101354.34;;;7.49;94.97
60715;BME280;46564;53.096;8.246;2023-02-18T18:00:59;101356.09;;;7.48;95.15
60715;BME280;46564;53.096;8.246;2023-02-18T18:07:19;101366.50;;;7.48;95.25
60715;BME280;46564;53.096;8.246;2023-02-18T18:12:50;101381.84;;;7.40;95.00
60715;BME280;46564;53.096;8.246;2023-02-18T18:24:23;101394.31;;;7.26;94.99
60715;BME280;46564;53.096;8.246;2023-02-18T18:30:26;101402.13;;;7.26;94.85
60715;BME280;46564;53.096;8.246;2023-02-18T18:35:58;101406.25;;;7.21;94.87
60715;BME280;46564;53.096;8.246;2023-02-18T18:41:56;101426.78;;;7.14;94.97
60715;BME280;46564;53.096;8.246;2023-02-18T18:48:09;101428.22;;;7.07;95.11
60715;BME280;46564;53.096;8.246;2023-02-18T18:53:52;101428.72;;;6.97;95.29
60715;BME280;46564;53.096;8.246;2023-02-18T19:00:00;101430.00;;;6.87;95.63
60715;BME280;46564;53.096;8.246;2023-02-18T19:05:47;101430.69;;;6.83;95.79
60715;BME280;46564;53.096;8.246;2023-02-18T19:11:13;101420.22;;;6.81;96.03
60715;BME280;46564;53.096;8.246;2023-02-18T19:23:02;101436.56;;;6.77;96.40
60715;BME280;46564;53.096;8.246;2023-02-18T19:28:24;101441.91;;;6.80;96.55
60715;BME280;46564;53.096;8.246;2023-02-18T19:34:27;101452.25;;;6.79;96.72
60715;BME280;46564;53.096;8.246;2023-02-18T19:40:12;101439.09;;;6.76;96.68
60715;BME280;46564;53.096;8.246;2023-02-18T19:45:49;101447.09;;;6.80;96.82
60715;BME280;46564;53.096;8.246;2023-02-18T19:51:49;101444.44;;;6.79;96.91
60715;BME280;46564;53.096;8.246;2023-02-18T19:57:50;101441.75;;;6.77;97.07
60715;BME280;46564;53.096;8.246;2023-02-18T20:03:24;101443.53;;;6.78;97.18
60715;BME280;46564;53.096;8.246;2023-02-18T20:09:22;101439.22;;;6.79;97.26
60715;BME280;46564;53.096;8.246;2023-02-18T20:22:36;101439.66;;;6.68;97.38
60715;BME280;46564;53.096;8.246;2023-02-18T20:28:47;101439.31;;;6.61;97.48
60715;BME280;46564;53.096;8.246;2023-02-18T20:40:47;101423.22;;;6.50;97.77
60715;BME280;46564;53.096;8.246;2023-02-18T20:46:43;101414.53;;;6.49;97.74
60715;BME280;46564;53.096;8.246;2023-02-18T21:00:07;101401.72;;;6.54;97.99
60715;BME280;46564;53.096;8.246;2023-02-18T21:06:46;101406.25;;;6.58;97.86
60715;BME280;46564;53.096;8.246;2023-02-18T21:13:35;101409.66;;;6.57;98.23
60715;BME280;46564;53.096;8.246;2023-02-18T21:19:04;101395.91;;;6.60;98.43
60715;BME280;46564;53.096;8.246;2023-02-18T21:38:28;101387.16;;;6.58;98.47
60715;BME280;46564;53.096;8.246;2023-02-18T21:45:05;101387.81;;;6.53;98.45
60715;BME280;46564;53.096;8.246;2023-02-18T21:51:11;101387.16;;;6.58;98.66
60715;BME280;46564;53.096;8.246;2023-02-18T21:57:48;101380.16;;;6.57;98.88
60715;BME280;46564;53.096;8.246;2023-02-18T22:04:00;101377.47;;;6.55;98.71
60715;BME280;46564;53.096;8.246;2023-02-18T22:09:55;101377.47;;;6.55;98.83
60715;BME280;46564;53.096;8.246;2023-02-18T22:22:32;101352.63;;;6.42;98.88
60715;BME280;46564;53.096;8.246;2023-02-18T22:35:35;101344.56;;;6.36;98.99
60715;BME280;46564;53.096;8.246;2023-02-18T22:41:20;101324.56;;;6.35;99.04
60715;BME280;46564;53.096;8.246;2023-02-18T22:47:08;101318.16;;;6.27;99.01
60715;BME280;46564;53.096;8.246;2023-02-18T22:52:36;101316.13;;;6.19;99.05
60715;BME280;46564;53.096;8.246;2023-02-18T23:06:15;101300.47;;;6.18;99.32
60715;BME280;46564;53.096;8.246;2023-02-18T23:18:14;101275.84;;;6.10;99.26
60715;BME280;46564;53.096;8.246;2023-02-18T23:24:21;101275.78;;;6.08;99.62
60715;BME280;46564;53.096;8.246;2023-02-18T23:30:42;101287.00;;;6.07;99.46
60715;BME280;46564;53.096;8.246;2023-02-18T23:37:12;101284.19;;;6.03;99.45
60715;BME280;46564;53.096;8.246;2023-02-18T23:42:54;101274.41;;;5.97;99.57
60715;BME280;46564;53.096;8.246;2023-02-18T23:55:11;101272.59;;;5.57;99.48
